DAUG/GHA METAR and TAF weather

Enter ICAO airport designator
Station Type Date Time Source
DAUG METAR 2018/07/21 13:00 UTC NOAA

DAUG 211300Z 21013G27KT 180V250 8000 BKN040 SCT100 46/// Q1013


Station Type Date Time Source
DAUG Decoded METAR 2018/07/21 13:00 UTC NOAA

Ghardaia, Algeria (DAUG) 32-23N 003-49E 450M
Jul 21, 2018 - 09:00 AM EDT / 2018.07.21 1300 UTC
Wind: from the SSW (210 degrees) at 15 MPH (13 KT) gusting to 31 MPH (27 KT) (direction variable):0
Visibility: 4 mile(s):0
Sky conditions: mostly cloudy
Temperature: 114 F (46 C)
Pressure (altimeter): 29.91 in. Hg (1013 hPa)
ob: DAUG 211300Z 21013G27KT 180V250 8000 BKN040 SCT100 46/// Q1013
cycle: 13

Station Type Date Time Source
DAUG TAF 2018/07/21 12:33 UTC NOAA

TAF DAUG 211100Z 2112/2212 20014KT 8000 FEW046 PROB30
TEMPO 2112/2115 20015G25KT 5000 DRSA FEW033TCU
BECMG 2120/2123 VRB02KT
BECMG 2202/2205 20012KT PROB40 2208/2212 22022KT 4000 DRSA


Example: see airport list